Pantodynamos — SVAG9 — position and weather

sailwx.info

Track history (hours):
 
Tides and Currents Weather Stations Pressure Air Temp Water Temp Dewpoint Dewpoint Depression Visibility Wind Speed Wind Dir Waves Ship Positions

Pantodynamos

Last reported at 2018-Feb-21 09:03 UTC. Time now 2018-Feb-24 00:34 UTC.
Position N 38°12' E 024°06'.

; draft 4.2 m.

Type: Cargo ship. MMSI: 241296000.

Date/timePositionNaut miles runAvg speedWind from/ knotsBaromVisibWave heightAir tempDewpointWater temp
2018-Feb-21 09:03N 38°12' E 024°06'0 8.1
2018-Feb-21 09:00N 38°12' E 024°06'4 7.8
2018-Feb-21 08:29N 38°08' E 024°09'4 8.2
2018-Feb-21 08:00N 38°05' E 024°11'4 8.3
2018-Feb-21 07:30N 38°01' E 024°12'  
2018-Feb-15 16:52N 38°09' E 024°09'4 7.5
2018-Feb-15 16:20N 38°05' E 024°11'3 7.6
2018-Feb-15 16:00N 38°03' E 024°11'  
2018-Feb-13 06:29N 37°39' E 023°48'3 7.0
2018-Feb-13 06:01N 37°39' E 023°44'3 6.7
2018-Feb-13 05:31N 37°42' E 023°41'4 7.0
2018-Feb-13 05:01N 37°45' E 023°39'4 7.0
2018-Feb-13 04:30N 37°48' E 023°37'3 6.3
2018-Feb-13 04:00N 37°50' E 023°34'4 7.0
2018-Feb-13 03:30N 37°50' E 023°29'4 7.1
2018-Feb-13 03:00N 37°51' E 023°25'4 7.1
2018-Feb-13 02:31N 37°51' E 023°20'3 7.0
2018-Feb-13 02:00N 37°52' E 023°16'4 7.0
2018-Feb-13 01:31N 37°52' E 023°12'4 7.0
2018-Feb-13 01:01N 37°53' E 023°07'3 7.0
2018-Feb-13 00:30N 37°54' E 023°03'5 5.4
2018-Feb-12 23:37N 37°57' E 022°58'1 5.1
2018-Feb-12 23:30N 37°57' E 022°58'3 5.2
2018-Feb-12 23:00N 37°59' E 022°55'2 3.8
2018-Feb-12 22:30N 37°60' E 022°53'2 3.7
2018-Feb-12 22:00N 38°01' E 022°51'3 6.4
2018-Feb-12 21:30N 38°03' E 022°49'3 6.9
2018-Feb-12 21:00N 38°06' E 022°47'4 6.8
2018-Feb-12 20:23N 38°10' E 022°45'4 6.9
2018-Feb-12 19:48N 38°14' E 022°42'3 0.2
2018-Feb-12 00:56N 38°17' E 022°40'3 7.3
2018-Feb-12 00:30N 38°14' E 022°42'5 7.2
2018-Feb-11 23:50N 38°10' E 022°45'2 7.3
2018-Feb-11 23:30N 38°07' E 022°46'4 7.3
2018-Feb-11 23:00N 38°04' E 022°48'4 7.2
2018-Feb-11 22:30N 38°01' E 022°50'4 8.0
2018-Feb-11 22:00N 37°59' E 022°55'3 5.1
2018-Feb-11 21:30N 37°57' E 022°57'4 7.4
2018-Feb-11 21:00N 37°55' E 023°01'1 2.3
2018-Feb-11 20:30N 37°54' E 023°02'2 3.8
2018-Feb-11 20:00N 37°54' E 023°04'4 8.1
2018-Feb-11 19:30N 37°53' E 023°09'4 8.0
2018-Feb-11 19:00N 37°52' E 023°14'4 7.9
2018-Feb-11 18:30N 37°51' E 023°19'4 7.7
2018-Feb-11 18:00N 37°50' E 023°24'4 7.8
2018-Feb-11 17:30N 37°50' E 023°29'4 7.8
2018-Feb-11 17:00N 37°50' E 023°34'4 7.8
2018-Feb-11 16:30N 37°50' E 023°39'3 6.8
2018-Feb-11 16:00N 37°48' E 023°41'4 7.4
2018-Feb-11 15:30N 37°44' E 023°43'4 7.2
2018-Feb-11 15:00N 37°41' E 023°45'  
Track history (hours):
 
Tides and Currents Weather Stations Pressure Air Temp Water Temp Dewpoint Dewpoint Depression Visibility Wind Speed Wind Dir Waves Ship Positions

Pantodynamos

Last reported at 2018-Feb-21 09:03 UTC. Time now 2018-Feb-24 00:34 UTC.
Position N 38°12' E 024°06'.

; draft 4.2 m.

Type: Cargo ship. MMSI: 241296000.

Date/timePositionNaut miles runAvg speedWind from/ knotsBaromVisibWave heightAir tempDewpointWater temp
2018-Feb-21 09:03N 38°12' E 024°06'0 8.1
2018-Feb-21 09:00N 38°12' E 024°06'4 7.8
2018-Feb-21 08:29N 38°08' E 024°09'4 8.2
2018-Feb-21 08:00N 38°05' E 024°11'4 8.3
2018-Feb-21 07:30N 38°01' E 024°12'  
2018-Feb-15 16:52N 38°09' E 024°09'4 7.5
2018-Feb-15 16:20N 38°05' E 024°11'3 7.6
2018-Feb-15 16:00N 38°03' E 024°11'  
2018-Feb-13 06:29N 37°39' E 023°48'3 7.0
2018-Feb-13 06:01N 37°39' E 023°44'3 6.7
2018-Feb-13 05:31N 37°42' E 023°41'4 7.0
2018-Feb-13 05:01N 37°45' E 023°39'4 7.0
2018-Feb-13 04:30N 37°48' E 023°37'3 6.3
2018-Feb-13 04:00N 37°50' E 023°34'4 7.0
2018-Feb-13 03:30N 37°50' E 023°29'4 7.1
2018-Feb-13 03:00N 37°51' E 023°25'4 7.1
2018-Feb-13 02:31N 37°51' E 023°20'3 7.0
2018-Feb-13 02:00N 37°52' E 023°16'4 7.0
2018-Feb-13 01:31N 37°52' E 023°12'4 7.0
2018-Feb-13 01:01N 37°53' E 023°07'3 7.0
2018-Feb-13 00:30N 37°54' E 023°03'5 5.4
2018-Feb-12 23:37N 37°57' E 022°58'1 5.1
2018-Feb-12 23:30N 37°57' E 022°58'3 5.2
2018-Feb-12 23:00N 37°59' E 022°55'2 3.8
2018-Feb-12 22:30N 37°60' E 022°53'2 3.7
2018-Feb-12 22:00N 38°01' E 022°51'3 6.4
2018-Feb-12 21:30N 38°03' E 022°49'3 6.9
2018-Feb-12 21:00N 38°06' E 022°47'4 6.8
2018-Feb-12 20:23N 38°10' E 022°45'4 6.9
2018-Feb-12 19:48N 38°14' E 022°42'3 0.2
2018-Feb-12 00:56N 38°17' E 022°40'3 7.3
2018-Feb-12 00:30N 38°14' E 022°42'5 7.2
2018-Feb-11 23:50N 38°10' E 022°45'2 7.3
2018-Feb-11 23:30N 38°07' E 022°46'4 7.3
2018-Feb-11 23:00N 38°04' E 022°48'4 7.2
2018-Feb-11 22:30N 38°01' E 022°50'4 8.0
2018-Feb-11 22:00N 37°59' E 022°55'3 5.1
2018-Feb-11 21:30N 37°57' E 022°57'4 7.4
2018-Feb-11 21:00N 37°55' E 023°01'1 2.3
2018-Feb-11 20:30N 37°54' E 023°02'2 3.8
2018-Feb-11 20:00N 37°54' E 023°04'4 8.1
2018-Feb-11 19:30N 37°53' E 023°09'4 8.0
2018-Feb-11 19:00N 37°52' E 023°14'4 7.9
2018-Feb-11 18:30N 37°51' E 023°19'4 7.7
2018-Feb-11 18:00N 37°50' E 023°24'4 7.8
2018-Feb-11 17:30N 37°50' E 023°29'4 7.8
2018-Feb-11 17:00N 37°50' E 023°34'4 7.8
2018-Feb-11 16:30N 37°50' E 023°39'3 6.8
2018-Feb-11 16:00N 37°48' E 023°41'4 7.4
2018-Feb-11 15:30N 37°44' E 023°43'4 7.2
2018-Feb-11 15:00N 37°41' E 023°45'  

Dump ship's entire track history